Ricosiete — 9GDN — position and weather

sailwx.info

Track history (hours):
 
Tides and Currents Weather Stations Pressure Air Temp Water Temp Dewpoint Dewpoint Depression Visibility Wind Speed Wind Dir Waves Ship Positions

Ricosiete

Last reported at 2018-May-18 16:12 UTC. Time now 2018-May-23 15:08 UTC.
Position N 05°35' E 000°08'.

Type: Fishing. MMSI: 627762000.

Date/timePositionNaut miles runAvg speedWind from/ knotsBaromVisibWave heightAir tempDewpointWater temp
2018-May-18 16:12N 05°35' E 000°08'210.1
2018-May-18 16:00N 05°36' E 000°06'5 9.1
2018-May-18 15:31N 05°37' E 000°02'0 0.3
2018-May-18 15:01N 05°37' E 000°02'0 1.0
2018-May-18 14:30N 05°38' E 000°02'4 7.7
2018-May-18 14:00N 05°38' E 000°06'510.2
2018-May-18 13:30N 05°40' E 000°11'4 7.3
2018-May-18 12:59N 05°42' E 000°14'0 0.9
2018-May-18 12:31N 05°42' E 000°14'0 0.9
2018-May-18 12:00N 05°42' E 000°15'1 1.1
2018-May-18 11:30N 05°43' E 000°15'0 0.7
2018-May-18 11:00N 05°42' E 000°15'0 0.9
2018-May-18 10:30N 05°43' E 000°15'1 1.0
2018-May-18 10:01N 05°42' E 000°15'0 0.8
2018-May-18 09:31N 05°42' E 000°15'5 9.1
2018-May-18 09:01N 05°42' E 000°19'5 9.9
2018-May-18 08:29N 05°42' E 000°25'48 1.1
2018-May-16 11:27N 05°21' W 000°19'3 7.2
2018-May-16 11:00N 05°23' W 000°22'2 4.4
2018-May-16 10:30N 05°25' W 000°23'1 0.3
2018-May-16 05:38N 05°26' W 000°22'1 8.5
2018-May-16 05:30N 05°26' W 000°21'4 8.7
2018-May-16 05:00N 05°26' W 000°16'4 8.6
2018-May-16 04:30N 05°26' W 000°12'5 8.6
2018-May-16 03:58N 05°25' W 000°08'4 8.6
2018-May-16 03:30N 05°24' W 000°04'4 8.7
2018-May-16 03:00N 05°23' E 000°00'4 8.7
2018-May-16 02:30N 05°21' E 000°05'12 0.3
2018-May-14 12:21N 05°14' W 000°05'20 6.6
2018-May-14 09:16N 05°22' W 000°24'  
2018-May-11 21:56N 05°39' E 000°07'0 0.0
2018-May-11 21:30N 05°39' E 000°07'31 0.7
2018-May-09 22:19N 05°26' W 000°21'3 9.2
2018-May-09 21:58N 05°24' W 000°18'9 9.3
2018-May-09 21:00N 05°19' W 000°11'5 9.6
2018-May-09 20:30N 05°17' W 000°07'5 9.6
2018-May-09 20:00N 05°14' W 000°03'9 9.1
2018-May-09 19:03N 05°09' E 000°05'  
Track history (hours):
 
Tides and Currents Weather Stations Pressure Air Temp Water Temp Dewpoint Dewpoint Depression Visibility Wind Speed Wind Dir Waves Ship Positions

Ricosiete

Last reported at 2018-May-18 16:12 UTC. Time now 2018-May-23 15:08 UTC.
Position N 05°35' E 000°08'.

Type: Fishing. MMSI: 627762000.

Date/timePositionNaut miles runAvg speedWind from/ knotsBaromVisibWave heightAir tempDewpointWater temp
2018-May-18 16:12N 05°35' E 000°08'210.1
2018-May-18 16:00N 05°36' E 000°06'5 9.1
2018-May-18 15:31N 05°37' E 000°02'0 0.3
2018-May-18 15:01N 05°37' E 000°02'0 1.0
2018-May-18 14:30N 05°38' E 000°02'4 7.7
2018-May-18 14:00N 05°38' E 000°06'510.2
2018-May-18 13:30N 05°40' E 000°11'4 7.3
2018-May-18 12:59N 05°42' E 000°14'0 0.9
2018-May-18 12:31N 05°42' E 000°14'0 0.9
2018-May-18 12:00N 05°42' E 000°15'1 1.1
2018-May-18 11:30N 05°43' E 000°15'0 0.7
2018-May-18 11:00N 05°42' E 000°15'0 0.9
2018-May-18 10:30N 05°43' E 000°15'1 1.0
2018-May-18 10:01N 05°42' E 000°15'0 0.8
2018-May-18 09:31N 05°42' E 000°15'5 9.1
2018-May-18 09:01N 05°42' E 000°19'5 9.9
2018-May-18 08:29N 05°42' E 000°25'48 1.1
2018-May-16 11:27N 05°21' W 000°19'3 7.2
2018-May-16 11:00N 05°23' W 000°22'2 4.4
2018-May-16 10:30N 05°25' W 000°23'1 0.3
2018-May-16 05:38N 05°26' W 000°22'1 8.5
2018-May-16 05:30N 05°26' W 000°21'4 8.7
2018-May-16 05:00N 05°26' W 000°16'4 8.6
2018-May-16 04:30N 05°26' W 000°12'5 8.6
2018-May-16 03:58N 05°25' W 000°08'4 8.6
2018-May-16 03:30N 05°24' W 000°04'4 8.7
2018-May-16 03:00N 05°23' E 000°00'4 8.7
2018-May-16 02:30N 05°21' E 000°05'12 0.3
2018-May-14 12:21N 05°14' W 000°05'20 6.6
2018-May-14 09:16N 05°22' W 000°24'  
2018-May-11 21:56N 05°39' E 000°07'0 0.0
2018-May-11 21:30N 05°39' E 000°07'31 0.7
2018-May-09 22:19N 05°26' W 000°21'3 9.2
2018-May-09 21:58N 05°24' W 000°18'9 9.3
2018-May-09 21:00N 05°19' W 000°11'5 9.6
2018-May-09 20:30N 05°17' W 000°07'5 9.6
2018-May-09 20:00N 05°14' W 000°03'9 9.1
2018-May-09 19:03N 05°09' E 000°05'  

Dump ship's entire track history